createdAt,value
2018-06-22T00:02:11.401Z,65.20
2018-06-22T00:04:39.907Z,65.30
2018-06-22T00:07:08.390Z,65.30
2018-06-22T00:09:36.901Z,65.30
2018-06-22T00:12:05.480Z,65.20
2018-06-22T00:14:34.011Z,65.10
2018-06-22T00:17:02.517Z,65.10
2018-06-22T00:19:31.001Z,65.00
2018-06-22T00:21:59.603Z,65.10
2018-06-22T00:24:28.121Z,65.20
2018-06-22T00:26:56.669Z,65.40
2018-06-22T00:29:25.155Z,65.50
2018-06-22T00:31:53.940Z,65.60
2018-06-22T00:34:22.406Z,65.70
2018-06-22T00:36:51.066Z,65.80
2018-06-22T00:39:19.574Z,65.60
2018-06-22T00:41:48.191Z,65.70
2018-06-22T00:44:16.760Z,65.80
2018-06-22T00:46:45.317Z,66.00
2018-06-22T00:49:14.136Z,66.10
2018-06-22T00:51:42.665Z,66.10
2018-06-22T00:54:14.942Z,66.10
2018-06-22T00:56:43.488Z,66.10
2018-06-22T00:59:12.657Z,66.10
2018-06-22T01:01:41.321Z,66.10
2018-06-22T01:04:10.904Z,66.10
2018-06-22T01:06:39.442Z,66.10
2018-06-22T01:09:10.718Z,66.90
2018-06-22T01:11:39.352Z,66.10
2018-06-22T01:14:08.391Z,66.10
2018-06-22T01:16:37.115Z,66.10
2018-06-22T01:19:05.900Z,66.10
2018-06-22T01:21:34.484Z,66.30
2018-06-22T01:24:02.994Z,66.20
2018-06-22T01:26:31.457Z,66.10
2018-06-22T01:29:05.381Z,66.10
2018-06-22T01:31:33.925Z,66.10
2018-06-22T01:36:30.720Z,66.20
2018-06-22T01:38:59.237Z,66.30
2018-06-22T01:41:27.814Z,66.40
2018-06-22T01:43:56.385Z,66.70
2018-06-22T01:46:24.913Z,66.70
2018-06-22T01:48:53.414Z,66.80
2018-06-22T01:51:21.895Z,66.80
2018-06-22T01:53:50.394Z,66.70
2018-06-22T01:56:18.928Z,66.80
2018-06-22T01:58:47.490Z,66.90
2018-06-22T02:01:16.028Z,66.90
2018-06-22T02:03:44.495Z,66.90
2018-06-22T02:06:12.971Z,66.80
2018-06-22T02:08:41.559Z,66.90
2018-06-22T02:11:10.087Z,66.80
2018-06-22T02:13:38.527Z,66.80
2018-06-22T02:16:06.997Z,66.80
2018-06-22T02:18:35.469Z,66.90
2018-06-22T02:23:32.167Z,67.50
2018-06-22T02:26:00.672Z,66.70
2018-06-22T02:28:29.122Z,66.70
2018-06-22T02:30:57.598Z,66.80
2018-06-22T02:33:26.127Z,66.70
2018-06-22T02:35:54.825Z,66.70
2018-06-22T02:38:23.296Z,66.80
2018-06-22T02:40:51.772Z,66.90
2018-06-22T02:43:20.260Z,66.90
2018-06-22T02:45:48.784Z,66.80
2018-06-22T02:48:17.306Z,66.80
2018-06-22T02:50:45.790Z,66.80
2018-06-22T02:55:42.449Z,67.20
2018-06-22T03:00:39.110Z,67.30
2018-06-22T03:08:03.967Z,67.30
2018-06-22T03:10:32.431Z,67.20
2018-06-22T03:15:29.072Z,67.30
2018-06-22T03:17:57.588Z,67.30
2018-06-22T03:22:54.262Z,67.60
2018-06-22T03:25:22.695Z,67.60
2018-06-22T03:27:51.164Z,68.30
2018-06-22T03:30:19.724Z,67.60
2018-06-22T03:32:48.266Z,67.60
2018-06-22T03:35:16.787Z,67.60
2018-06-22T03:40:13.412Z,67.40
2018-06-22T03:42:41.885Z,67.30
2018-06-22T03:45:10.466Z,67.30
2018-06-22T03:47:39.083Z,67.30
2018-06-22T03:50:07.564Z,67.40
2018-06-22T03:52:36.009Z,67.50
2018-06-22T03:55:04.494Z,67.60
2018-06-22T03:57:32.936Z,67.50
2018-06-22T04:02:29.617Z,68.10
2018-06-22T04:04:58.107Z,67.60
2018-06-22T04:07:26.579Z,67.60
2018-06-22T04:12:23.182Z,68.20
2018-06-22T04:14:51.656Z,67.60
2018-06-22T04:17:20.090Z,67.60
2018-06-22T04:19:48.577Z,67.60
2018-06-22T04:22:17.085Z,67.60
2018-06-22T04:27:13.710Z,67.60
2018-06-22T04:29:42.147Z,67.70
2018-06-22T04:32:10.621Z,67.70
2018-06-22T04:34:39.085Z,67.70
2018-06-22T04:37:07.566Z,67.60
2018-06-22T04:39:36.309Z,67.60
2018-06-22T04:42:04.806Z,67.70
2018-06-22T04:44:33.264Z,67.70
2018-06-22T04:47:02.090Z,67.70
2018-06-22T04:49:30.922Z,67.70
2018-06-22T04:52:00.052Z,67.70
2018-06-22T04:54:28.719Z,67.80
2018-06-22T04:56:59.586Z,67.80
2018-06-22T04:59:28.400Z,67.90
2018-06-22T05:01:57.238Z,67.80
2018-06-22T05:04:25.654Z,67.80
2018-06-22T05:06:54.157Z,67.60
2018-06-22T05:09:22.660Z,67.90
2018-06-22T05:14:19.566Z,67.90
2018-06-22T05:16:48.057Z,67.80
2018-06-22T05:19:16.619Z,67.80
2018-06-22T05:21:45.107Z,67.70
2018-06-22T05:24:13.568Z,67.80
2018-06-22T05:26:42.057Z,68.00
2018-06-22T05:29:10.506Z,68.00
2018-06-22T05:31:39.262Z,67.90
2018-06-22T05:34:07.715Z,67.90
2018-06-22T05:36:36.235Z,67.90
2018-06-22T05:39:07.766Z,67.90
2018-06-22T05:41:36.307Z,67.90
2018-06-22T05:44:04.798Z,68.00
2018-06-22T05:46:33.259Z,68.20
2018-06-22T05:49:01.766Z,68.20
2018-06-22T05:51:30.283Z,68.20
2018-06-22T05:53:58.772Z,68.30
2018-06-22T05:56:27.275Z,68.50
2018-06-22T05:58:55.813Z,68.40
2018-06-22T06:01:24.253Z,68.30
2018-06-22T06:03:52.780Z,68.20
2018-06-22T06:06:21.217Z,68.00
2018-06-22T06:08:49.734Z,68.00
2018-06-22T06:11:18.264Z,67.90
2018-06-22T06:13:46.729Z,68.60
2018-06-22T06:18:43.379Z,67.90
2018-06-22T06:21:11.861Z,68.00
2018-06-22T06:26:08.786Z,68.90
2018-06-22T06:31:05.480Z,68.10
2018-06-22T06:33:34.016Z,68.10
2018-06-22T06:36:02.530Z,68.10
2018-06-22T06:38:31.013Z,68.20
2018-06-22T06:40:59.511Z,68.30
2018-06-22T06:43:28.047Z,68.20
2018-06-22T06:48:24.809Z,68.90
2018-06-22T06:53:21.526Z,69.40
2018-06-22T06:55:50.066Z,69.50
2018-06-22T06:58:18.552Z,69.60
2018-06-22T07:00:47.016Z,69.80
2018-06-22T07:03:15.503Z,69.90
2018-06-22T07:05:44.060Z,69.80
2018-06-22T07:08:12.699Z,69.70
2018-06-22T07:10:41.180Z,69.00
2018-06-22T07:15:40.642Z,68.00
2018-06-22T07:18:09.869Z,67.60
2018-06-22T07:20:38.746Z,67.70
2018-06-22T07:23:07.795Z,67.80
2018-06-22T07:28:04.762Z,67.20
2018-06-22T07:30:33.238Z,67.10
2018-06-22T07:33:01.844Z,67.30
2018-06-22T07:37:58.479Z,67.10
2018-06-22T07:40:26.913Z,67.10
2018-06-22T07:42:55.419Z,67.20
2018-06-22T07:45:23.871Z,67.50
2018-06-22T07:47:52.354Z,67.80
2018-06-22T07:50:20.854Z,67.80
2018-06-22T07:52:49.381Z,67.80
2018-06-22T07:55:17.845Z,67.80
2018-06-22T07:57:46.306Z,67.70
2018-06-22T08:00:14.833Z,67.80
2018-06-22T08:02:43.337Z,67.80
2018-06-22T08:05:11.839Z,67.70
2018-06-22T08:07:40.314Z,67.90
2018-06-22T08:10:08.754Z,68.90
2018-06-22T08:12:37.231Z,68.00
2018-06-22T08:15:05.683Z,67.60
2018-06-22T08:17:34.349Z,67.30
2018-06-22T08:20:02.815Z,67.00
2018-06-22T08:22:31.416Z,67.10
2018-06-22T08:24:59.904Z,67.10
2018-06-22T08:27:28.349Z,67.50
2018-06-22T08:29:56.803Z,67.70
2018-06-22T08:32:25.276Z,67.90
2018-06-22T08:34:53.764Z,67.80
2018-06-22T08:37:22.301Z,67.50
2018-06-22T08:39:50.917Z,67.50
2018-06-22T08:42:19.401Z,67.60
2018-06-22T08:44:47.996Z,67.50
2018-06-22T08:47:16.465Z,67.60
2018-06-22T08:49:44.941Z,67.60
2018-06-22T08:52:15.030Z,67.60
2018-06-22T08:54:43.579Z,67.90
2018-06-22T08:57:12.028Z,68.00
2018-06-22T08:59:40.509Z,67.80
2018-06-22T09:02:08.987Z,67.60
2018-06-22T09:04:37.440Z,67.60
2018-06-22T09:07:05.926Z,67.00
2018-06-22T09:16:58.947Z,67.30
2018-06-22T09:19:27.442Z,67.00
2018-06-22T09:24:24.046Z,66.80
2018-06-22T09:26:52.493Z,66.70
2018-06-22T09:31:49.192Z,66.90
2018-06-22T09:34:18.027Z,66.70
2018-06-22T09:36:46.470Z,66.50
2018-06-22T09:39:14.949Z,66.30
2018-06-22T09:41:43.418Z,66.30
2018-06-22T09:44:23.214Z,66.30
2018-06-22T09:46:51.656Z,66.40
2018-06-22T09:49:20.155Z,66.40
2018-06-22T09:51:48.637Z,66.10
2018-06-22T09:54:17.072Z,65.70
2018-06-22T09:56:45.568Z,65.70
2018-06-22T09:59:14.020Z,65.60
2018-06-22T10:01:42.522Z,65.40
2018-06-22T10:04:11.005Z,65.40
2018-06-22T10:06:39.472Z,65.30
2018-06-22T10:09:10.389Z,65.00
2018-06-22T10:11:38.925Z,65.20
2018-06-22T10:14:07.446Z,65.50
2018-06-22T10:19:04.193Z,65.20
2018-06-22T10:21:32.659Z,64.90
2018-06-22T10:24:01.437Z,64.40
2018-06-22T10:26:29.901Z,64.10
2018-06-22T10:28:58.494Z,63.90
2018-06-22T10:31:26.935Z,63.80
2018-06-22T10:36:23.742Z,63.10
2018-06-22T10:38:52.338Z,63.10
2018-06-22T10:41:20.857Z,63.10
2018-06-22T10:43:49.332Z,63.00
2018-06-22T10:46:17.875Z,62.70
2018-06-22T10:48:46.313Z,62.40
2018-06-22T10:51:14.861Z,62.00
2018-06-22T10:53:43.300Z,62.00
2018-06-22T10:56:11.911Z,61.90
2018-06-22T10:58:40.398Z,61.80
2018-06-22T11:01:08.981Z,61.90
2018-06-22T11:03:37.543Z,62.10
2018-06-22T11:06:06.114Z,62.30
2018-06-22T11:08:34.601Z,62.00
2018-06-22T11:11:03.149Z,61.90
2018-06-22T11:13:31.798Z,61.60
2018-06-22T11:16:00.279Z,61.10
2018-06-22T11:18:29.182Z,61.00
2018-06-22T11:23:25.996Z,59.90
2018-06-22T11:25:54.553Z,59.90
2018-06-22T11:28:23.083Z,59.90
2018-06-22T11:30:51.633Z,60.20
2018-06-22T11:33:20.240Z,60.40
2018-06-22T11:35:48.842Z,60.40
2018-06-22T11:38:17.235Z,60.00
2018-06-22T11:40:45.732Z,60.10
2018-06-22T11:43:14.179Z,59.70
2018-06-22T11:45:42.820Z,60.00
2018-06-22T11:48:11.276Z,59.90
2018-06-22T11:50:39.813Z,60.00
2018-06-22T11:58:04.676Z,59.60
2018-06-22T12:00:33.787Z,59.50
2018-06-22T12:03:02.371Z,59.50
2018-06-22T12:05:30.985Z,59.50
2018-06-22T12:07:59.868Z,59.60
2018-06-22T12:10:28.448Z,59.50
2018-06-22T12:12:56.939Z,59.50
2018-06-22T12:15:25.503Z,59.60
2018-06-22T12:17:53.956Z,59.50
2018-06-22T12:20:22.425Z,59.50
2018-06-22T12:22:50.999Z,59.50
2018-06-22T12:25:19.513Z,59.50
2018-06-22T12:27:47.986Z,59.50
2018-06-22T12:30:16.496Z,59.50
2018-06-22T12:35:13.146Z,59.40
2018-06-22T12:37:41.608Z,59.30
2018-06-22T12:40:10.083Z,59.20
2018-06-22T12:42:38.577Z,59.10
2018-06-22T12:45:09.248Z,59.00
2018-06-22T12:50:06.442Z,59.20
2018-06-22T12:52:34.948Z,59.30
2018-06-22T12:55:03.450Z,59.00
2018-06-22T12:57:32.033Z,58.70
2018-06-22T13:02:29.163Z,58.70
2018-06-22T13:04:57.680Z,58.70
2018-06-22T13:07:26.180Z,58.70
2018-06-22T13:09:54.633Z,58.60
2018-06-22T13:14:51.331Z,58.80
2018-06-22T13:17:19.835Z,58.70
2018-06-22T13:19:48.319Z,58.60
2018-06-22T13:22:16.861Z,58.50
2018-06-22T13:24:45.267Z,58.50
2018-06-22T13:27:13.732Z,58.70
2018-06-22T13:29:42.184Z,58.70
2018-06-22T13:32:10.695Z,58.70
2018-06-22T13:34:39.205Z,58.70
2018-06-22T13:37:07.707Z,58.40
2018-06-22T13:39:36.193Z,58.20
2018-06-22T13:42:04.680Z,58.40
2018-06-22T13:44:33.251Z,58.40
2018-06-22T13:47:01.729Z,58.30
2018-06-22T13:49:30.222Z,58.20
2018-06-22T13:51:58.652Z,58.20
2018-06-22T13:54:27.305Z,58.10
2018-06-22T13:56:55.832Z,58.00
2018-06-22T13:59:24.275Z,57.70
2018-06-22T14:01:52.757Z,57.40
2018-06-22T14:04:26.533Z,57.50
2018-06-22T14:06:56.215Z,57.70
2018-06-22T14:09:24.879Z,57.80
2018-06-22T14:11:53.265Z,57.70
2018-06-22T14:14:21.755Z,57.60
2018-06-22T14:16:50.225Z,57.70
2018-06-22T14:19:18.784Z,57.60
2018-06-22T14:21:47.226Z,57.50
2018-06-22T14:24:15.765Z,57.50
2018-06-22T14:26:44.204Z,57.40
2018-06-22T14:29:12.671Z,57.40
2018-06-22T14:31:41.139Z,57.20
2018-06-22T14:34:09.653Z,57.10
2018-06-22T14:36:38.109Z,56.90
2018-06-22T14:39:08.469Z,57.00
2018-06-22T14:41:36.975Z,56.90
2018-06-22T14:44:05.819Z,57.00
2018-06-22T14:46:34.396Z,56.80
2018-06-22T14:49:02.903Z,56.60
2018-06-22T14:51:31.408Z,56.70
2018-06-22T14:54:05.450Z,56.60
2018-06-22T14:56:39.157Z,56.60
2018-06-22T14:59:13.065Z,56.50
2018-06-22T15:04:20.448Z,56.60
2018-06-22T15:06:54.158Z,56.60
2018-06-22T15:09:22.688Z,56.40
2018-06-22T15:11:51.230Z,56.20
2018-06-22T15:14:19.766Z,56.40
2018-06-22T15:16:48.683Z,56.40
2018-06-22T15:19:17.150Z,56.40
2018-06-22T15:21:45.681Z,56.30
2018-06-22T15:24:14.133Z,56.30
2018-06-22T15:26:42.683Z,56.40
2018-06-22T15:31:39.318Z,56.70
2018-06-22T15:34:13.014Z,56.80
2018-06-22T15:36:46.860Z,56.90
2018-06-22T15:42:57.898Z,56.90
2018-06-22T15:45:30.330Z,56.80
2018-06-22T15:48:04.160Z,56.70
2018-06-22T15:50:37.856Z,56.50
2018-06-22T15:53:11.738Z,56.20
2018-06-22T15:55:43.724Z,56.30
2018-06-22T15:58:12.331Z,56.20
2018-06-22T16:00:40.800Z,56.00
2018-06-22T16:03:15.283Z,56.00
2018-06-22T16:05:43.787Z,56.00
2018-06-22T16:08:12.297Z,56.00
2018-06-22T16:10:40.772Z,56.00
2018-06-22T16:13:14.715Z,56.00
2018-06-22T16:15:48.605Z,56.00
2018-06-22T16:18:22.570Z,56.00
2018-06-22T16:23:29.812Z,56.30
2018-06-22T16:26:03.541Z,56.40
2018-06-22T16:28:32.016Z,56.50
2018-06-22T16:31:00.503Z,56.40
2018-06-22T16:33:29.210Z,56.60
2018-06-22T16:35:57.728Z,56.60
2018-06-22T16:40:54.393Z,56.80
2018-06-22T16:43:23.957Z,56.90
2018-06-22T16:45:52.583Z,57.00
2018-06-22T16:48:21.069Z,57.00
2018-06-22T16:50:49.588Z,56.90
2018-06-22T16:53:18.100Z,56.90
2018-06-22T16:55:46.840Z,56.90
2018-06-22T17:00:48.938Z,57.00
2018-06-22T17:03:17.429Z,57.10
2018-06-22T17:05:45.937Z,57.10
2018-06-22T17:08:19.612Z,57.20
2018-06-22T17:10:53.612Z,57.50
2018-06-22T17:16:01.042Z,57.30
2018-06-22T17:18:34.775Z,57.00
2018-06-22T17:21:03.332Z,57.30
2018-06-22T17:26:00.054Z,58.50
2018-06-22T17:28:28.525Z,58.80
2018-06-22T17:30:57.022Z,59.00
2018-06-22T17:33:25.562Z,59.20
2018-06-22T17:35:54.041Z,59.40
2018-06-22T17:38:22.579Z,59.40
2018-06-22T17:40:51.054Z,59.40
2018-06-22T17:43:19.670Z,59.50
2018-06-22T17:45:48.280Z,59.40
2018-06-22T17:50:44.965Z,59.50
2018-06-22T17:53:13.617Z,59.50
2018-06-22T17:55:42.140Z,59.50
2018-06-22T17:58:10.659Z,59.60
2018-06-22T18:00:44.470Z,59.70
2018-06-22T18:03:18.222Z,59.80
2018-06-22T18:05:52.205Z,59.80
2018-06-22T18:08:25.997Z,59.80
2018-06-22T18:10:59.780Z,59.90
2018-06-22T18:13:28.234Z,59.90
2018-06-22T18:15:56.813Z,59.90
2018-06-22T18:18:25.293Z,60.00
2018-06-22T18:23:21.911Z,60.30
2018-06-22T18:25:50.350Z,60.20
2018-06-22T18:30:47.001Z,60.40
2018-06-22T18:33:15.498Z,60.50
2018-06-22T18:35:43.983Z,60.60
2018-06-22T18:38:12.447Z,60.60
2018-06-22T18:40:40.941Z,60.80
2018-06-22T18:43:13.615Z,60.90
2018-06-22T18:45:42.160Z,61.00
2018-06-22T18:48:10.660Z,61.00
2018-06-22T18:50:39.185Z,61.10
2018-06-22T18:57:48.844Z,60.60
2018-06-22T19:00:22.519Z,61.00
2018-06-22T19:02:56.503Z,61.20
2018-06-22T19:07:53.196Z,61.40
2018-06-22T19:10:21.703Z,61.60
2018-06-22T19:12:50.199Z,61.80
2018-06-22T19:15:18.733Z,61.80
2018-06-22T19:20:15.502Z,62.00
2018-06-22T19:22:44.011Z,62.00
2018-06-22T19:25:12.555Z,61.90
2018-06-22T19:27:41.103Z,62.20
2018-06-22T19:30:10.332Z,62.40
2018-06-22T19:32:39.323Z,62.60
2018-06-22T19:35:14.783Z,62.70
2018-06-22T19:37:44.240Z,62.90
2018-06-22T19:40:13.062Z,62.90
2018-06-22T19:42:41.542Z,63.00
2018-06-22T19:45:15.586Z,63.10
2018-06-22T19:47:49.516Z,63.10
2018-06-22T19:50:23.219Z,63.20
2018-06-22T19:52:57.261Z,63.30
2018-06-22T19:55:25.785Z,63.30
2018-06-22T19:57:54.357Z,63.30
2018-06-22T20:00:22.845Z,63.40
2018-06-22T20:02:51.310Z,63.40
2018-06-22T20:05:19.813Z,63.30
2018-06-22T20:07:48.310Z,63.30
2018-06-22T20:10:16.788Z,63.30
2018-06-22T20:12:45.251Z,63.30
2018-06-22T20:15:13.807Z,63.30
2018-06-22T20:17:42.272Z,63.30
2018-06-22T20:20:10.816Z,63.40
2018-06-22T20:22:39.313Z,64.10
2018-06-22T20:25:13.192Z,63.40
2018-06-22T20:27:41.640Z,63.20
2018-06-22T20:30:10.121Z,63.30
2018-06-22T20:32:38.637Z,63.40
2018-06-22T20:35:12.497Z,63.60
2018-06-22T20:37:46.360Z,64.00
2018-06-22T20:40:20.103Z,64.10
2018-06-22T20:42:53.764Z,64.20
2018-06-22T20:45:27.578Z,64.30
2018-06-22T20:48:01.338Z,64.30
2018-06-22T20:50:32.558Z,64.30
2018-06-22T20:53:01.648Z,64.30
2018-06-22T20:55:30.490Z,64.50
2018-06-22T20:57:58.922Z,64.60
2018-06-22T21:00:28.332Z,64.50
2018-06-22T21:02:58.081Z,64.60
2018-06-22T21:05:26.554Z,64.50
2018-06-22T21:07:55.194Z,64.50
2018-06-22T21:10:23.828Z,64.50
2018-06-22T21:12:52.328Z,64.50
2018-06-22T21:15:20.803Z,64.60
2018-06-22T21:17:49.332Z,64.50
2018-06-22T21:22:46.071Z,64.60
2018-06-22T21:25:14.557Z,64.60
2018-06-22T21:27:48.338Z,64.70
2018-06-22T21:30:22.126Z,64.60
2018-06-22T21:32:55.900Z,64.60
2018-06-22T21:35:30.183Z,64.70
2018-06-22T21:38:03.867Z,64.70
2018-06-22T21:40:32.420Z,64.70
2018-06-22T21:43:00.936Z,64.60
2018-06-22T21:45:29.405Z,64.50
2018-06-22T21:47:57.967Z,64.40
2018-06-22T21:50:26.444Z,64.40
2018-06-22T21:52:54.982Z,64.50
2018-06-22T21:55:23.432Z,64.70
2018-06-22T22:00:31.891Z,64.70
2018-06-22T22:03:01.208Z,64.50
2018-06-22T22:05:30.422Z,64.60
2018-06-22T22:07:59.211Z,64.60
2018-06-22T22:10:33.112Z,64.40
2018-06-22T22:13:01.602Z,64.30
2018-06-22T22:15:30.404Z,64.20
2018-06-22T22:17:58.848Z,64.30
2018-06-22T22:20:27.325Z,64.20
2018-06-22T22:25:24.223Z,64.10
2018-06-22T22:27:52.800Z,64.20
2018-06-22T22:30:21.431Z,64.20
2018-06-22T22:32:50.039Z,64.30
2018-06-22T22:35:18.658Z,64.20
2018-06-22T22:37:47.137Z,64.10
2018-06-22T22:40:15.624Z,63.80
2018-06-22T22:42:44.148Z,63.90
2018-06-22T22:45:12.685Z,63.90
2018-06-22T22:47:41.131Z,63.80
2018-06-22T22:50:09.692Z,63.70
2018-06-22T22:52:38.176Z,63.70
2018-06-22T22:55:06.683Z,63.80
2018-06-22T22:57:35.155Z,63.80
2018-06-22T23:00:03.660Z,63.80
2018-06-22T23:02:32.124Z,63.70
2018-06-22T23:05:00.699Z,63.70
2018-06-22T23:07:29.230Z,63.70
2018-06-22T23:09:57.790Z,63.80
2018-06-22T23:12:26.308Z,63.70
2018-06-22T23:14:54.816Z,63.60
2018-06-22T23:19:51.556Z,63.70
2018-06-22T23:22:30.158Z,63.50
2018-06-22T23:24:58.758Z,63.50
2018-06-22T23:27:27.334Z,63.70
2018-06-22T23:29:55.867Z,63.80
2018-06-22T23:32:24.495Z,63.90
2018-06-22T23:34:52.967Z,63.90
2018-06-22T23:37:21.391Z,63.80
2018-06-22T23:39:49.891Z,63.70
2018-06-22T23:42:18.388Z,63.80
2018-06-22T23:44:46.881Z,63.80
2018-06-22T23:47:15.393Z,63.80
2018-06-22T23:49:43.962Z,63.80
2018-06-22T23:54:40.711Z,63.60
2018-06-22T23:57:09.224Z,63.60
2018-06-22T23:59:37.716Z,63.70
